Time;durP1;ratioP1;P1;durP2;ratioP2;P2;SDS_P1;SDS_P2;PMS_P1;PMS_P2;Temp;Humidity;BMP_temperature;BMP_pressure;BME280_temperature;BME280_humidity;BME280_pressure;Samples;Min_cycle;Max_cycle;Signal;HPM_P1;HPM_P2
2023/09/09 00:01:26;;;;;;;11.65;3.50;;;;;;;19.43;85.83;100794.31;5071066;28;20476;-63
2023/09/09 00:03:51;;;;;;;7.28;3.55;;;;;;;19.37;86.79;100795.16;5070895;28;20401;-64
2023/09/09 00:06:17;;;;;;;9.15;3.70;;;;;;;19.33;87.51;100793.41;5070968;28;20115;-66
2023/09/09 00:08:43;;;;;;;10.07;3.90;;;;;;;19.33;87.38;100796.03;5053356;28;20547;-64
2023/09/09 00:11:09;;;;;;;8.15;3.63;;;;;;;19.24;87.81;100776.75;5070157;28;20056;-68
2023/09/09 00:13:35;;;;;;;8.52;3.20;;;;;;;19.38;87.07;100794.31;5071742;28;20059;-65
2023/09/09 00:16:01;;;;;;;9.88;3.35;;;;;;;19.05;85.26;100735.63;5070674;28;20039;-66
2023/09/09 00:18:26;;;;;;;8.13;3.28;;;;;;;19.32;85.40;100782.03;5071222;28;20028;-64
2023/09/09 00:20:52;;;;;;;6.07;3.60;;;;;;;19.24;85.07;100774.16;5070959;28;20032;-66
2023/09/09 00:23:17;;;;;;;6.60;3.60;;;;;;;19.23;85.16;100789.84;5071087;28;20384;-66
2023/09/09 00:25:43;;;;;;;9.05;2.90;;;;;;;19.02;86.50;100795.81;5034571;28;20457;-64
2023/09/09 00:28:12;;;;;;;9.48;3.83;;;;;;;18.70;88.65;100793.78;5070658;28;20036;-70
2023/09/09 00:30:37;;;;;;;7.33;3.60;;;;;;;18.43;91.02;100785.69;5070471;28;20063;-65
2023/09/09 00:33:03;;;;;;;7.68;3.47;;;;;;;18.22;93.13;100793.31;5070235;28;20052;-66
2023/09/09 00:35:29;;;;;;;7.55;3.63;;;;;;;18.07;94.82;100783.59;5070327;28;20021;-65
2023/09/09 00:37:55;;;;;;;7.63;3.83;;;;;;;17.93;95.65;100770.31;5070387;28;20110;-67
2023/09/09 00:40:20;;;;;;;7.50;3.70;;;;;;;18.06;94.93;100789.66;5070437;28;20076;-69
2023/09/09 00:42:47;;;;;;;9.40;3.45;;;;;;;17.87;95.51;100788.50;5034865;28;20492;-65
2023/09/09 00:45:13;;;;;;;5.50;3.25;;;;;;;17.74;96.15;100788.34;5070154;28;20530;-65
2023/09/09 00:47:39;;;;;;;11.05;3.90;;;;;;;17.36;98.13;100782.63;5070478;28;20044;-66
2023/09/09 00:50:09;;;;;;;6.97;3.97;;;;;;;17.43;98.46;100780.16;5069629;28;20036;-70
2023/09/09 00:52:37;;;;;;;8.18;3.40;;;;;;;17.11;98.15;100715.34;5052179;28;20488;-65
2023/09/09 00:55:03;;;;;;;7.82;3.78;;;;;;;17.02;98.06;100699.53;5052404;28;20104;-63
2023/09/09 00:57:29;;;;;;;10.02;4.03;;;;;;;17.56;97.70;100770.75;5070227;28;20129;-63
2023/09/09 00:59:54;;;;;;;10.15;4.18;;;;;;;17.12;97.10;100696.22;5069627;28;20429;-63
2023/09/09 01:02:20;;;;;;;5.40;3.50;;;;;;;17.62;96.94;100762.13;5070121;28;20033;-63
2023/09/09 01:04:45;;;;;;;7.53;3.65;;;;;;;17.41;97.48;100768.81;5070081;28;20019;-67
2023/09/09 01:07:11;;;;;;;7.45;3.88;;;;;;;17.28;97.68;100749.50;5069670;28;20028;-70
2023/09/09 01:09:36;;;;;;;6.15;3.63;;;;;;;17.29;97.80;100761.66;5070151;28;20028;-65
2023/09/09 01:12:03;;;;;;;8.30;3.83;;;;;;;16.90;98.03;100687.19;5069970;28;20407;-64
2023/09/09 01:14:29;;;;;;;7.32;3.45;;;;;;;17.26;98.46;100758.16;5069933;28;20099;-67
2023/09/09 01:16:56;;;;;;;7.93;3.55;;;;;;;16.80;100.00;100750.50;5069829;28;20107;-67
2023/09/09 01:19:25;;;;;;;6.93;3.67;;;;;;;15.75;100.00;100616.69;5069411;28;20500;-65
2023/09/09 01:21:53;;;;;;;8.35;3.38;;;;;;;16.63;100.00;100756.28;5069503;28;20032;-64
2023/09/09 01:24:19;;;;;;;12.23;4.13;;;;;;;16.80;100.00;100755.72;5069437;28;20085;-63
2023/09/09 01:26:45;;;;;;;8.93;4.05;;;;;;;16.81;100.00;100753.13;5069917;28;20032;-63
2023/09/09 01:29:11;;;;;;;8.63;3.75;;;;;;;16.74;100.00;100740.81;5069339;28;20025;-69
2023/09/09 01:31:37;;;;;;;8.45;3.35;;;;;;;16.82;99.82;100751.38;5051933;28;20032;-70
2023/09/09 01:34:03;;;;;;;7.45;3.53;;;;;;;16.81;99.51;100753.13;5069425;28;20024;-71
2023/09/09 01:36:28;;;;;;;6.45;3.55;;;;;;;16.33;98.99;100674.13;5069418;28;20025;-62
2023/09/09 01:38:53;;;;;;;10.18;3.75;;;;;;;16.82;99.09;100743.53;5069171;28;20058;-64
2023/09/09 01:41:19;;;;;;;9.75;3.75;;;;;;;16.81;98.00;100734.00;5069645;28;20082;-67
2023/09/09 01:43:44;;;;;;;6.43;3.60;;;;;;;16.15;98.48;100663.44;5070398;28;20035;-64
2023/09/09 01:46:10;;;;;;;8.48;3.60;;;;;;;16.52;99.64;100752.63;5074223;28;20109;-64
2023/09/09 01:48:37;;;;;;;8.90;4.18;;;;;;;16.29;100.00;100745.28;5073484;28;20021;-63
2023/09/09 01:51:03;;;;;;;7.50;3.50;;;;;;;16.22;100.00;100739.94;5037842;28;20040;-65
2023/09/09 01:53:28;;;;;;;10.15;4.03;;;;;;;16.20;100.00;100745.13;5073288;28;20122;-65
2023/09/09 01:55:56;;;;;;;5.88;3.70;;;;;;;16.26;100.00;100745.25;5073466;28;20056;-66
2023/09/09 01:58:21;;;;;;;7.25;3.45;;;;;;;16.04;100.00;100728.34;5073386;28;20414;-64
2023/09/09 02:00:47;;;;;;;6.25;3.15;;;;;;;16.22;100.00;100733.00;5073657;28;20131;-70
2023/09/09 02:03:13;;;;;;;6.88;3.28;;;;;;;16.15;100.00;100734.63;5073114;28;20618;-67
2023/09/09 02:05:39;;;;;;;7.78;3.70;;;;;;;16.20;100.00;100739.03;5073196;28;20032;-66
2023/09/09 02:08:04;;;;;;;6.68;3.35;;;;;;;16.29;100.00;100740.06;5037505;28;20042;-65
2023/09/09 02:10:30;;;;;;;10.48;3.55;;;;;;;16.33;100.00;100734.06;5073215;28;20119;-64
2023/09/09 02:12:55;;;;;;;6.32;3.30;;;;;;;16.52;97.99;100736.97;5073285;28;20029;-64
2023/09/09 02:15:21;;;;;;;7.88;3.70;;;;;;;16.30;97.20;100694.94;5073600;28;20028;-67
2023/09/09 02:17:46;;;;;;;8.32;3.78;;;;;;;16.56;96.99;100731.00;5072616;28;20032;-68
2023/09/09 02:20:12;;;;;;;6.03;3.58;;;;;;;16.68;95.98;100729.44;5054566;28;20107;-63
2023/09/09 02:22:37;;;;;;;6.07;3.10;;;;;;;16.16;94.98;100660.84;5073121;28;20150;-63
2023/09/09 02:25:03;;;;;;;9.07;3.58;;;;;;;16.48;95.50;100732.59;5073032;28;20136;-69
2023/09/09 02:27:29;;;;;;;8.77;3.95;;;;;;;16.47;97.02;100736.94;5073037;28;20056;-67
2023/09/09 02:29:54;;;;;;;7.30;3.50;;;;;;;16.62;95.85;100732.81;5073488;28;20454;-63
2023/09/09 02:32:20;;;;;;;6.65;3.70;;;;;;;16.55;93.88;100721.41;5072810;28;20013;-66
2023/09/09 02:34:45;;;;;;;7.40;3.67;;;;;;;16.21;96.68;100733.84;5072711;28;20032;-64
2023/09/09 02:37:20;;;;;;;9.38;4.57;;;;;;;15.99;98.42;100735.19;5072405;28;20506;-62
2023/09/09 02:39:50;;;;;;;9.23;5.30;;;;;;;15.91;99.32;100723.75;5037456;28;20595;-66
2023/09/09 02:42:18;;;;;;;12.05;5.43;;;;;;;15.94;99.71;100724.69;5054277;28;20472;-65
2023/09/09 02:44:44;;;;;;;10.07;5.47;;;;;;;16.05;100.00;100730.09;5072880;28;20032;-63
2023/09/09 02:47:12;;;;;;;8.20;5.07;;;;;;;16.15;99.23;100711.19;5072477;28;20534;-63
2023/09/09 02:49:38;;;;;;;9.32;5.20;;;;;;;16.42;98.61;100719.44;5072651;28;20118;-64
2023/09/09 02:52:05;;;;;;;12.68;5.65;;;;;;;16.46;95.29;100734.28;5072088;28;20025;-67
2023/09/09 02:54:30;;;;;;;6.80;4.40;;;;;;;16.39;95.40;100722.00;5072989;28;20051;-63
2023/09/09 02:56:56;;;;;;;9.15;4.82;;;;;;;16.57;94.57;100726.66;5071505;28;20056;-63
2023/09/09 02:59:23;;;;;;;8.38;4.68;;;;;;;16.51;93.49;100727.44;5072396;28;20020;-64
2023/09/09 03:01:49;;;;;;;10.68;4.22;;;;;;;16.40;94.50;100724.63;5072055;28;20021;-66
2023/09/09 03:04:14;;;;;;;11.73;4.40;;;;;;;16.31;92.85;100722.75;5072323;28;20033;-65
2023/09/09 03:06:40;;;;;;;9.82;3.90;;;;;;;16.38;91.62;100734.16;5072134;28;20082;-65
2023/09/09 03:09:06;;;;;;;9.60;4.45;;;;;;;16.23;91.77;100711.31;5071793;28;20031;-64
2023/09/09 03:11:32;;;;;;;8.63;3.95;;;;;;;16.42;91.26;100732.47;5071792;28;20029;-63
2023/09/09 03:13:58;;;;;;;9.45;4.00;;;;;;;16.42;90.14;100729.88;5065729;28;20033;-66
2023/09/09 03:16:23;;;;;;;6.68;3.63;;;;;;;16.25;91.29;100732.16;5016423;28;20508;-67
2023/09/09 03:18:48;;;;;;;8.00;4.07;;;;;;;16.21;92.02;100726.03;5009976;28;20065;-63
2023/09/09 03:21:14;;;;;;;9.68;3.95;;;;;;;15.88;92.00;100728.91;5009484;28;20072;-68
2023/09/09 03:23:40;;;;;;;6.85;3.95;;;;;;;15.86;94.41;100736.66;5009646;28;20045;-63
2023/09/09 03:26:05;;;;;;;10.88;4.20;;;;;;;15.78;94.67;100722.59;5009275;28;20029;-65
2023/09/09 03:28:31;;;;;;;9.18;3.90;;;;;;;15.89;93.72;100734.13;5009799;28;20065;-63
2023/09/09 03:31:00;;;;;;;10.65;4.00;;;;;;;15.36;92.28;100623.78;5009045;28;20105;-64
2023/09/09 03:33:30;;;;;;;8.55;3.53;;;;;;;16.00;92.81;100735.22;5009719;28;20048;-64
2023/09/09 03:35:56;;;;;;;6.18;3.83;;;;;;;15.96;93.21;100723.00;5009696;28;20046;-64
2023/09/09 03:38:22;;;;;;;10.52;3.92;;;;;;;15.61;91.19;100668.47;5009711;28;20142;-64
2023/09/09 03:40:47;;;;;;;11.18;4.07;;;;;;;15.96;91.08;100735.13;5009519;28;20150;-68
2023/09/09 03:43:12;;;;;;;7.55;3.60;;;;;;;15.43;92.15;100662.94;5009549;28;20030;-64
2023/09/09 03:45:38;;;;;;;12.52;4.53;;;;;;;15.51;93.53;100688.25;5009118;28;20025;-65
2023/09/09 03:48:04;;;;;;;11.27;4.50;;;;;;;15.85;93.44;100738.41;5009392;28;20524;-66
2023/09/09 03:50:30;;;;;;;6.32;3.67;;;;;;;15.36;91.83;100665.41;5047723;28;20051;-64
2023/09/09 03:52:55;;;;;;;9.65;3.97;;;;;;;15.56;93.23;100737.75;5071462;28;20064;-64
2023/09/09 03:55:21;;;;;;;9.15;3.97;;;;;;;15.26;93.83;100741.47;5052870;28;20063;-64
2023/09/09 03:57:46;;;;;;;9.27;4.22;;;;;;;15.00;97.06;100741.78;5071696;28;20459;-63
2023/09/09 04:00:12;;;;;;;9.60;3.83;;;;;;;14.97;97.05;100752.09;5070501;28;20494;-62
2023/09/09 04:02:38;;;;;;;14.45;4.55;;;;;;;15.12;99.32;100748.09;5071331;28;20411;-63
2023/09/09 04:05:03;;;;;;;10.05;4.07;;;;;;;15.27;96.77;100745.84;5070751;28;20032;-62
2023/09/09 04:07:33;;;;;;;10.60;4.40;;;;;;;15.28;96.49;100742.41;5070374;28;20043;-63
2023/09/09 04:09:58;;;;;;;13.40;4.95;;;;;;;15.35;96.30;100756.41;5070931;28;20499;-70
2023/09/09 04:12:24;;;;;;;13.00;4.78;;;;;;;15.09;98.06;100748.91;5071300;28;20040;-69
2023/09/09 04:14:50;;;;;;;14.02;4.93;;;;;;;14.59;100.00;100687.03;5071265;28;20017;-67
2023/09/09 04:17:15;;;;;;;11.73;4.65;;;;;;;14.73;99.79;100684.81;5053398;28;20035;-66
2023/09/09 04:19:40;;;;;;;9.90;4.38;;;;;;;14.89;100.00;100722.44;5071288;28;20077;-65
2023/09/09 04:22:06;;;;;;;11.40;4.25;;;;;;;14.90;100.00;100751.91;5035748;28;20048;-65
2023/09/09 04:24:31;;;;;;;11.80;5.10;;;;;;;15.02;100.00;100747.00;5071426;28;20036;-65
2023/09/09 04:26:57;;;;;;;11.02;4.07;;;;;;;15.07;100.00;100750.59;5071035;28;20518;-66
2023/09/09 04:29:22;;;;;;;14.50;4.88;;;;;;;15.01;100.00;100747.84;5070506;28;20047;-66
2023/09/09 04:31:48;;;;;;;9.23;4.82;;;;;;;14.99;100.00;100752.13;5071208;28;20028;-66
2023/09/09 04:34:13;;;;;;;10.45;4.53;;;;;;;14.71;100.00;100673.50;5070947;28;20028;-68
2023/09/09 04:36:41;;;;;;;10.40;5.18;;;;;;;15.33;100.00;100748.56;5071028;28;20024;-65
2023/09/09 04:39:06;;;;;;;9.73;4.70;;;;;;;15.51;100.00;100755.91;5070952;28;20033;-68
2023/09/09 04:41:31;;;;;;;9.02;4.72;;;;;;;15.57;100.00;100736.06;5070886;28;20029;-66
2023/09/09 04:43:57;;;;;;;11.48;4.95;;;;;;;15.60;100.00;100731.81;5071157;28;20032;-66
2023/09/09 04:46:22;;;;;;;12.50;5.28;;;;;;;15.83;100.00;100745.28;5070555;28;20211;-66
2023/09/09 04:48:52;;;;;;;7.82;4.68;;;;;;;15.82;100.00;100750.47;5070948;28;20040;-65
2023/09/09 04:51:17;;;;;;;7.82;4.93;;;;;;;15.91;100.00;100757.59;5070943;28;20032;-70
2023/09/09 04:53:43;;;;;;;12.57;4.65;;;;;;;15.57;100.00;100686.63;5070644;28;20043;-66
2023/09/09 04:56:08;;;;;;;8.50;5.07;;;;;;;16.12;100.00;100763.19;5070768;28;20032;-66
2023/09/09 04:58:34;;;;;;;14.18;5.00;;;;;;;16.19;100.00;100769.41;5070358;28;20434;-65
2023/09/09 05:01:00;;;;;;;14.60;5.88;;;;;;;16.19;100.00;100759.00;5064152;28;20036;-65
2023/09/09 05:03:25;;;;;;;39.72;6.60;;;;;;;16.32;100.00;100774.03;5070720;28;20035;-65
2023/09/09 05:05:51;;;;;;;12.07;4.47;;;;;;;16.30;100.00;100754.88;5070401;28;20408;-68
2023/09/09 05:08:16;;;;;;;15.30;5.45;;;;;;;16.47;100.00;100769.91;5070622;28;20138;-67
2023/09/09 05:10:42;;;;;;;10.05;5.30;;;;;;;16.40;98.71;100761.13;5070316;28;20112;-64
2023/09/09 05:13:07;;;;;;;10.27;5.88;;;;;;;16.00;98.38;100690.94;5070318;28;20020;-67
2023/09/09 05:15:33;;;;;;;15.20;7.13;;;;;;;16.42;98.10;100771.56;5052888;28;20426;-66
2023/09/09 05:17:58;;;;;;;16.30;8.90;;;;;;;16.26;98.50;100757.38;5070614;28;20020;-65
2023/09/09 05:20:24;;;;;;;16.77;8.70;;;;;;;16.21;99.14;100759.88;5069924;28;20036;-65
2023/09/09 05:22:49;;;;;;;17.08;8.65;;;;;;;15.88;100.00;100729.78;5070493;28;20024;-65
2023/09/09 05:25:15;;;;;;;20.13;9.07;;;;;;;16.06;100.00;100780.44;5070444;28;20036;-73
2023/09/09 05:27:41;;;;;;;18.25;8.63;;;;;;;16.03;100.00;100760.44;5070010;28;20495;-70
2023/09/09 05:30:07;;;;;;;13.45;6.40;;;;;;;15.96;100.00;100733.41;5070350;28;20035;-66
2023/09/09 05:32:32;;;;;;;12.68;6.97;;;;;;;16.14;100.00;100755.44;5070139;28;20107;-66
2023/09/09 05:34:58;;;;;;;13.82;5.82;;;;;;;16.20;100.00;100758.16;5070409;28;20057;-65
2023/09/09 05:37:26;;;;;;;12.25;5.35;;;;;;;16.32;100.00;100761.00;5070059;28;20472;-70
2023/09/09 05:39:52;;;;;;;12.68;5.65;;;;;;;16.46;100.00;100755.13;5069938;28;20471;-66
2023/09/09 05:42:18;;;;;;;10.70;5.47;;;;;;;16.54;100.00;100761.34;5069836;28;20150;-65
2023/09/09 05:44:44;;;;;;;18.00;6.00;;;;;;;16.45;100.00;100762.06;5070098;28;20058;-66
2023/09/09 05:47:09;;;;;;;16.67;5.93;;;;;;;16.36;100.00;100733.22;5070369;28;20028;-67
2023/09/09 05:49:36;;;;;;;11.30;6.38;;;;;;;16.79;100.00;100777.41;5070083;28;20039;-66
2023/09/09 05:52:01;;;;;;;13.40;6.47;;;;;;;16.98;100.00;100768.16;5070335;28;20040;-66
2023/09/09 05:54:27;;;;;;;16.80;6.47;;;;;;;17.20;100.00;100766.78;5070496;28;20025;-71
2023/09/09 05:56:52;;;;;;;14.70;6.15;;;;;;;17.31;100.00;100769.53;5070101;28;20049;-72
2023/09/09 05:59:18;;;;;;;12.80;6.40;;;;;;;17.15;100.00;100755.41;5034406;28;20086;-65
2023/09/09 06:01:43;;;;;;;13.88;6.32;;;;;;;17.09;100.00;100732.69;5070204;28;20220;-66
2023/09/09 06:04:09;;;;;;;18.73;7.00;;;;;;;17.32;100.00;100760.88;5069832;28;20025;-66
2023/09/09 06:06:34;;;;;;;22.17;11.52;;;;;;;17.44;100.00;100757.53;5069854;28;20081;-65
2023/09/09 06:09:00;;;;;;;18.90;10.38;;;;;;;17.53;100.00;100759.38;5034858;28;20033;-66
2023/09/09 06:11:25;;;;;;;21.60;9.85;;;;;;;17.15;99.46;100690.19;5069400;28;20034;-65
2023/09/09 06:13:51;;;;;;;16.48;9.02;;;;;;;17.63;99.40;100763.84;5050817;28;20032;-66
2023/09/09 06:16:17;;;;;;;20.63;6.88;;;;;;;17.67;97.54;100764.78;5069962;28;20032;-67
2023/09/09 06:18:42;;;;;;;16.27;6.90;;;;;;;16.98;96.26;100635.16;5069600;28;20062;-67
2023/09/09 06:21:08;;;;;;;12.23;6.75;;;;;;;17.74;96.02;100750.94;5060086;28;20041;-66
2023/09/09 06:23:35;;;;;;;13.85;6.97;;;;;;;18.15;94.65;100773.22;5049622;28;20025;-67
2023/09/09 06:26:00;;;;;;;11.30;6.03;;;;;;;18.33;93.67;100773.41;5049453;28;20060;-65
2023/09/09 06:28:26;;;;;;;8.63;4.35;;;;;;;18.44;90.23;100770.88;5049921;28;20067;-65
2023/09/09 06:30:51;;;;;;;12.30;4.25;;;;;;;18.74;86.88;100779.84;5050526;28;20025;-65
2023/09/09 06:33:17;;;;;;;13.55;4.10;;;;;;;18.85;87.41;100780.81;5053353;28;20028;-65
2023/09/09 06:35:52;;;;;;;7.88;3.72;;;;;;;18.88;85.19;100772.13;5051821;28;20471;-65
2023/09/09 06:38:17;;;;;;;10.43;3.85;;;;;;;19.01;82.16;100786.19;5053482;28;20491;-65
2023/09/09 06:40:44;;;;;;;12.32;4.18;;;;;;;19.21;83.07;100781.09;5047437;28;20100;-69
2023/09/09 06:43:10;;;;;;;12.23;4.10;;;;;;;19.27;82.20;100783.75;5033638;28;20021;-67
2023/09/09 06:45:35;;;;;;;11.93;3.50;;;;;;;19.30;78.92;100781.19;5050985;28;20506;-65
2023/09/09 06:48:03;;;;;;;8.80;3.42;;;;;;;19.48;77.66;100790.00;5052189;28;20095;-65
2023/09/09 06:50:28;;;;;;;10.63;3.75;;;;;;;19.18;77.46;100706.06;5052574;28;20063;-67
2023/09/09 06:52:54;;;;;;;21.70;4.40;;;;;;;19.80;73.63;100779.66;5052965;28;20064;-71
2023/09/09 06:55:21;;;;;;;13.25;3.65;;;;;;;20.07;70.95;100779.78;5052588;28;20041;-64
2023/09/09 06:57:46;;;;;;;7.93;3.40;;;;;;;20.09;71.89;100775.41;5052626;28;20416;-65
2023/09/09 07:00:15;;;;;;;8.63;3.60;;;;;;;19.81;73.20;100721.16;5052538;28;20078;-66
2023/09/09 07:02:41;;;;;;;7.22;3.38;;;;;;;20.17;72.73;100766.69;5034327;28;20024;-64
2023/09/09 07:05:07;;;;;;;9.70;3.33;;;;;;;20.52;65.54;100773.75;5052537;28;20095;-65
2023/09/09 07:07:33;;;;;;;6.80;2.97;;;;;;;20.77;66.89;100760.66;5051626;28;20120;-67
2023/09/09 07:09:58;;;;;;;9.68;3.45;;;;;;;20.33;64.07;100693.31;5050836;28;20528;-67
2023/09/09 07:12:24;;;;;;;5.63;2.75;;;;;;;20.88;61.78;100765.03;5051884;28;20017;-62
2023/09/09 07:14:49;;;;;;;7.60;3.03;;;;;;;20.87;62.93;100763.28;5051890;28;20485;-65
2023/09/09 07:17:15;;;;;;;7.20;3.00;;;;;;;20.94;59.56;100759.78;5052005;28;20031;-67
2023/09/09 07:19:40;;;;;;;13.05;3.63;;;;;;;21.12;58.74;100761.47;5051401;28;20040;-66
2023/09/09 07:22:06;;;;;;;10.98;3.22;;;;;;;21.32;57.93;100758.81;5051573;28;20040;-63
2023/09/09 07:24:32;;;;;;;15.00;4.55;;;;;;;21.31;57.32;100757.09;5050980;28;20033;-61
2023/09/09 07:26:59;;;;;;;7.70;2.92;;;;;;;21.28;56.15;100747.47;5051846;28;20026;-63
2023/09/09 07:29:25;;;;;;;6.60;3.17;;;;;;;21.55;55.03;100752.63;5052124;28;20033;-64
2023/09/09 07:31:50;;;;;;;10.50;4.20;;;;;;;21.73;52.69;100755.22;5052051;28;20028;-65
2023/09/09 07:34:16;;;;;;;10.00;3.90;;;;;;;21.86;55.47;100760.38;5051764;28;20047;-63
2023/09/09 07:36:41;;;;;;;7.55;3.90;;;;;;;21.88;55.86;100761.25;5051870;28;20083;-62
2023/09/09 07:39:07;;;;;;;10.10;4.20;;;;;;;21.91;55.81;100756.00;5051465;28;20029;-65
2023/09/09 07:41:33;;;;;;;8.82;4.93;;;;;;;21.96;54.11;100754.22;5048113;28;20037;-65
2023/09/09 07:43:58;;;;;;;8.93;5.03;;;;;;;22.11;51.18;100756.72;5051426;28;20495;-67
2023/09/09 07:46:23;;;;;;;9.90;4.95;;;;;;;22.39;50.18;100759.22;5051729;28;20488;-65
2023/09/09 07:48:49;;;;;;;9.77;5.63;;;;;;;22.50;52.72;100758.28;5051693;28;20036;-64
2023/09/09 07:51:14;;;;;;;10.57;5.40;;;;;;;22.43;52.97;100758.31;5051863;28;20029;-65
2023/09/09 07:53:40;;;;;;;8.52;4.68;;;;;;;22.52;50.21;100756.47;5051052;28;20017;-64
2023/09/09 07:56:05;;;;;;;15.05;5.95;;;;;;;22.68;53.08;100752.84;5033532;28;20124;-69
2023/09/09 07:58:30;;;;;;;7.97;3.97;;;;;;;22.45;46.11;100703.03;5051601;28;20495;-65
2023/09/09 08:01:05;;;;;;;11.63;5.00;;;;;;;22.89;45.88;100748.25;5051449;28;20471;-65
2023/09/09 08:03:31;;;;;;;10.07;3.90;;;;;;;22.89;46.32;100746.53;5051292;28;20116;-64
2023/09/09 08:06:01;;;;;;;8.93;4.00;;;;;;;23.05;46.78;100749.00;5051279;28;20105;-64
2023/09/09 08:08:26;;;;;;;8.23;3.83;;;;;;;23.08;43.44;100734.03;5051375;28;20017;-64
2023/09/09 08:10:52;;;;;;;9.50;3.65;;;;;;;22.78;44.47;100688.72;5051142;28;20033;-63
2023/09/09 08:13:17;;;;;;;10.55;4.03;;;;;;;23.31;43.70;100745.25;5050847;28;20013;-65
2023/09/09 08:15:42;;;;;;;10.05;3.40;;;;;;;23.50;41.77;100732.72;5051270;28;20025;-68
2023/09/09 08:18:08;;;;;;;7.53;2.92;;;;;;;23.63;41.70;100734.31;5050976;28;20020;-63
2023/09/09 08:20:33;;;;;;;5.80;2.60;;;;;;;23.64;38.26;100720.25;5050863;28;20119;-67
2023/09/09 08:22:59;;;;;;;6.43;2.22;;;;;;;23.88;36.67;100732.19;5050977;28;20056;-65
2023/09/09 08:25:25;;;;;;;8.15;2.55;;;;;;;24.05;37.15;100731.13;5051217;28;20396;-66
2023/09/09 08:27:50;;;;;;;4.38;2.08;;;;;;;24.16;37.02;100734.50;5050822;28;20057;-63
2023/09/09 08:30:17;;;;;;;6.03;1.95;;;;;;;24.21;32.84;100718.56;5051019;28;20460;-65
2023/09/09 08:32:42;;;;;;;5.63;2.50;;;;;;;24.32;34.99;100726.31;5050695;28;20017;-66
2023/09/09 08:35:08;;;;;;;4.47;1.92;;;;;;;24.21;34.00;100708.91;5050549;28;20032;-67
2023/09/09 08:37:33;;;;;;;4.35;2.17;;;;;;;24.21;33.89;100715.94;5015225;28;20036;-66
2023/09/09 08:39:59;;;;;;;6.15;2.38;;;;;;;24.25;34.46;100724.66;5050357;28;20122;-63
2023/09/09 08:42:40;;;;;;;4.65;2.00;;;;;;;24.33;34.21;100720.16;5050699;28;20021;-65
2023/09/09 08:45:58;;;;;;;5.63;1.88;;;;;;;24.56;33.43;100735.59;5027881;28;20034;-68
2023/09/09 08:48:28;;;;;;;6.28;1.88;;;;;;;24.65;33.58;100729.31;5028110;28;20057;-65
2023/09/09 08:50:58;;;;;;;;;;;;;;;24.73;33.02;100727.41;5012335;28;20037;-65
2023/09/09 08:53:28;;;;;;;10.45;2.80;;;;;;;24.82;34.72;100718.47;5027289;28;19961;-64
2023/09/09 08:55:55;;;;;;;3.67;2.10;;;;;;;25.01;34.73;100696.09;4984414;28;20045;-64
2023/09/09 08:58:21;;;;;;;8.25;3.17;;;;;;;25.18;33.02;100721.31;5031419;28;20136;-63
2023/09/09 09:00:49;;;;;;;19.33;4.80;;;;;;;25.29;34.83;100705.25;5028029;28;20088;-65
2023/09/09 09:03:15;;;;;;;21.27;4.78;;;;;;;25.45;33.86;100706.69;5027593;28;20146;-65
2023/09/09 09:05:42;;;;;;;9.98;3.85;;;;;;;25.59;33.93;100716.97;5027946;28;20041;-65
2023/09/09 09:08:09;;;;;;;5.53;2.35;;;;;;;25.74;33.08;100706.97;5027761;28;20025;-67
2023/09/09 09:10:35;;;;;;;7.38;2.33;;;;;;;25.88;34.37;100712.81;5026957;28;20421;-63
2023/09/09 09:13:02;;;;;;;12.60;2.67;;;;;;;25.86;32.11;100701.41;5027114;28;20517;-65
2023/09/09 09:15:33;;;;;;;12.38;2.70;;;;;;;25.91;33.05;100715.38;4996447;28;20037;-64
2023/09/09 09:18:01;;;;;;;12.60;3.28;;;;;;;26.02;34.15;100715.16;5049496;28;20606;-65
2023/09/09 09:20:30;;;;;;;11.75;2.92;;;;;;;26.13;34.23;100714.91;5049055;28;20104;-65
2023/09/09 09:23:15;;;;;;;5.72;1.90;;;;;;;26.21;29.25;100678.56;5007240;28;20026;-65
2023/09/09 09:25:46;;;;;;;11.05;3.00;;;;;;;26.46;28.67;100717.66;5007864;28;20096;-62
2023/09/09 09:28:15;;;;;;;5.68;2.00;;;;;;;26.52;32.74;100695.44;5007416;28;20413;-62
2023/09/09 09:30:41;;;;;;;;;;;;;;;26.57;31.75;100699.72;5008243;28;20042;-64
2023/09/09 09:33:07;;;;;;;10.52;2.50;;;;;;;26.64;30.60;100698.66;5007711;28;20352;-64
2023/09/09 09:35:34;;;;;;;10.93;3.03;;;;;;;26.60;31.35;100699.63;5003961;28;20076;-64
2023/09/09 09:38:09;;;;;;;9.23;2.40;;;;;;;26.04;30.01;100567.81;5007270;28;20462;-64
2023/09/09 09:40:35;;;;;;;15.15;2.58;;;;;;;26.84;30.69;100704.34;4995893;28;20086;-67
2023/09/09 09:43:01;;;;;;;12.27;2.80;;;;;;;26.79;34.01;100693.88;5007540;28;20770;-63
2023/09/09 09:45:29;;;;;;;6.63;2.28;;;;;;;26.72;33.20;100702.88;5007611;28;20021;-68
2023/09/09 09:47:56;;;;;;;6.85;2.25;;;;;;;26.71;34.63;100702.00;5007302;28;20274;-62
2023/09/09 09:50:30;;;;;;;5.75;2.10;;;;;;;26.63;34.16;100683.66;5007349;28;20041;-65
2023/09/09 09:52:58;;;;;;;7.20;2.35;;;;;;;26.71;32.27;100685.25;5007823;28;20034;-68
2023/09/09 09:55:24;;;;;;;6.35;2.00;;;;;;;26.87;33.91;100696.31;5029287;28;20164;-67
2023/09/09 09:57:53;;;;;;;5.38;1.95;;;;;;;26.89;32.06;100684.78;5049804;28;20467;-67
2023/09/09 10:00:21;;;;;;;5.93;2.28;;;;;;;27.06;32.29;100686.94;5049949;28;20017;-67
2023/09/09 10:02:57;;;;;;;10.68;2.33;;;;;;;27.07;29.22;100666.63;5049395;28;20041;-65
2023/09/09 10:05:25;;;;;;;7.28;1.90;;;;;;;27.27;35.15;100679.28;5017076;28;20067;-65
2023/09/09 10:07:58;;;;;;;12.52;3.03;;;;;;;27.37;33.01;100679.88;5053651;28;20033;-66
2023/09/09 10:10:25;;;;;;;5.75;2.40;;;;;;;27.51;31.06;100676.84;5053590;28;20029;-64
2023/09/09 10:13:09;;;;;;;6.60;2.00;;;;;;;27.57;32.21;100680.16;5052891;28;20033;-66
2023/09/09 10:15:36;;;;;;;4.88;2.13;;;;;;;27.58;29.75;100668.66;5053071;28;20546;-64
2023/09/09 10:18:03;;;;;;;10.00;2.20;;;;;;;27.74;29.64;100668.19;5053031;28;20036;-69
2023/09/09 10:20:30;;;;;;;13.95;3.60;;;;;;;27.86;28.47;100670.44;5053251;28;20096;-67
2023/09/09 10:23:00;;;;;;;5.35;2.20;;;;;;;27.96;28.08;100651.56;5053234;28;20032;-66
2023/09/09 10:25:32;;;;;;;8.18;2.42;;;;;;;28.02;29.50;100638.97;5017720;28;20044;-65
2023/09/09 10:27:58;;;;;;;6.13;2.53;;;;;;;28.19;29.34;100642.91;5053178;28;20033;-69
2023/09/09 10:30:24;;;;;;;6.43;2.63;;;;;;;28.28;26.76;100642.56;5053582;28;20460;-66
2023/09/09 10:32:50;;;;;;;7.05;2.40;;;;;;;28.34;26.95;100638.84;5053259;28;20036;-67
2023/09/09 10:35:17;;;;;;;5.57;1.90;;;;;;;28.22;28.17;100609.13;5052627;28;20025;-66
2023/09/09 10:37:44;;;;;;;8.00;2.28;;;;;;;28.62;27.38;100640.53;5052276;28;20025;-63
2023/09/09 10:40:11;;;;;;;11.57;5.00;;;;;;;28.58;29.04;100637.97;5052572;28;20051;-68
2023/09/09 10:42:38;;;;;;;9.32;2.60;;;;;;;28.25;28.48;100571.88;5052811;28;20021;-66
2023/09/09 10:45:22;;;;;;;6.82;2.90;;;;;;;28.84;29.83;100627.38;5017599;28;20041;-64
2023/09/09 10:47:58;;;;;;;18.67;7.32;;;;;;;28.49;28.57;100569.25;5040575;28;20138;-66
2023/09/09 10:50:38;;;;;;;27.63;12.25;;;;;;;28.94;29.63;100619.94;5052632;28;20025;-66
2023/09/09 10:53:26;;;;;;;7.95;4.10;;;;;;;28.98;28.44;100626.84;5052300;28;20021;-66
2023/09/09 10:55:58;;;;;;;6.03;2.60;;;;;;;29.04;29.69;100627.47;5045181;28;20053;-66
2023/09/09 10:58:37;;;;;;;16.27;7.20;;;;;;;28.80;28.00;100597.38;5049140;28;20028;-68
2023/09/09 11:01:07;;;;;;;6.20;2.20;;;;;;;28.54;28.50;100551.34;5052087;28;20037;-67
2023/09/09 11:03:36;;;;;;;6.55;2.33;;;;;;;28.99;29.42;100612.63;5039670;28;20733;-67
2023/09/09 11:06:30;;;;;;;8.07;2.35;;;;;;;29.12;29.30;100619.19;5052230;28;20033;-67
2023/09/09 11:08:58;;;;;;;9.45;3.88;;;;;;;29.07;28.51;100615.00;5051239;28;20051;-66
2023/09/09 11:11:37;;;;;;;6.72;4.13;;;;;;;29.01;28.88;100606.34;5048312;28;20033;-68
2023/09/09 11:14:07;;;;;;;7.17;3.40;;;;;;;29.18;30.74;100603.00;5051622;28;20507;-67
2023/09/09 11:16:32;;;;;;;7.80;3.97;;;;;;;29.35;30.65;100598.88;5051825;28;20021;-68
2023/09/09 11:19:13;;;;;;;11.77;4.43;;;;;;;29.45;29.79;100592.25;5029566;28;20067;-65